createdAt,value
2023-02-27T00:00:42.438Z,68.49
2023-02-27T00:01:42.426Z,67.69
2023-02-27T00:02:42.502Z,67.90
2023-02-27T00:03:42.459Z,67.79
2023-02-27T00:04:42.417Z,67.55
2023-02-27T00:05:42.398Z,68.21
2023-02-27T00:06:42.377Z,67.79
2023-02-27T00:07:42.430Z,68.21
2023-02-27T00:08:42.456Z,68.21
2023-02-27T00:09:42.394Z,68.10
2023-02-27T00:10:42.329Z,68.52
2023-02-27T00:11:42.326Z,67.90
2023-02-27T00:12:42.307Z,67.79
2023-02-27T00:13:42.298Z,68.52
2023-02-27T00:14:42.305Z,68.21
2023-02-27T00:15:42.333Z,67.90
2023-02-27T00:16:42.265Z,68.52
2023-02-27T00:17:42.254Z,68.55
2023-02-27T00:18:42.247Z,68.21
2023-02-27T00:19:42.370Z,68.73
2023-02-27T00:20:42.229Z,68.63
2023-02-27T00:21:42.225Z,68.73
2023-02-27T00:22:42.207Z,68.73
2023-02-27T00:23:42.200Z,68.45
2023-02-27T00:24:42.200Z,68.84
2023-02-27T00:25:42.196Z,68.63
2023-02-27T00:26:42.173Z,68.32
2023-02-27T00:27:42.164Z,68.42
2023-02-27T00:28:42.146Z,68.42
2023-02-27T00:29:42.171Z,68.55
2023-02-27T00:30:42.200Z,68.76
2023-02-27T00:31:42.241Z,68.52
2023-02-27T00:32:42.117Z,68.66
2023-02-27T00:33:42.094Z,68.87
2023-02-27T00:34:42.072Z,68.45
2023-02-27T00:35:42.094Z,68.87
2023-02-27T00:36:42.050Z,69.28
2023-02-27T00:37:42.044Z,68.87
2023-02-27T00:38:42.026Z,69.53
2023-02-27T00:39:42.019Z,69.63
2023-02-27T00:40:42.029Z,69.91
2023-02-27T00:41:42.020Z,69.94
2023-02-27T00:42:42.013Z,70.01
2023-02-27T00:43:42.009Z,70.04
2023-02-27T00:44:41.994Z,70.15
2023-02-27T00:45:41.981Z,70.04
2023-02-27T00:46:42.070Z,69.73
2023-02-27T00:47:42.042Z,69.73
2023-02-27T00:48:41.920Z,69.73
2023-02-27T00:49:41.919Z,69.73
2023-02-27T00:50:41.929Z,69.63
2023-02-27T00:51:41.915Z,70.46
2023-02-27T00:52:41.888Z,70.67
2023-02-27T00:53:41.877Z,70.98
2023-02-27T00:54:41.864Z,70.67
2023-02-27T00:55:41.872Z,70.88
2023-02-27T00:56:41.840Z,70.98
2023-02-27T00:57:41.899Z,70.74
2023-02-27T00:58:41.819Z,70.78
2023-02-27T00:59:41.817Z,70.67
2023-02-27T01:00:41.882Z,70.78
2023-02-27T01:01:41.788Z,70.67
2023-02-27T01:02:41.874Z,70.53
2023-02-27T01:03:41.774Z,70.36
2023-02-27T01:04:41.756Z,70.43
2023-02-27T01:05:41.793Z,70.88
2023-02-27T01:06:41.743Z,70.84
2023-02-27T01:07:41.730Z,70.78
2023-02-27T01:08:41.715Z,70.98
2023-02-27T01:09:41.713Z,71.09
2023-02-27T01:10:41.713Z,70.98
2023-02-27T01:11:41.683Z,70.98
2023-02-27T01:12:41.677Z,71.19
2023-02-27T01:13:41.690Z,71.01
2023-02-27T01:14:41.651Z,71.01
2023-02-27T01:15:41.665Z,71.43
2023-02-27T01:16:41.697Z,71.12
2023-02-27T01:17:41.620Z,71.33
2023-02-27T01:18:41.615Z,71.95
2023-02-27T01:19:41.600Z,71.75
2023-02-27T01:20:41.611Z,71.85
2023-02-27T01:21:41.583Z,71.95
2023-02-27T01:22:41.574Z,71.85
2023-02-27T01:23:41.567Z,71.95
2023-02-27T01:24:41.561Z,71.85
2023-02-27T01:25:41.562Z,71.75
2023-02-27T01:26:41.531Z,72.06
2023-02-27T01:27:41.527Z,71.75
2023-02-27T01:28:41.523Z,71.78
2023-02-27T01:29:41.513Z,72.41
2023-02-27T01:30:41.506Z,72.19
2023-02-27T01:31:41.515Z,72.41
2023-02-27T01:32:41.560Z,72.51
2023-02-27T01:33:41.469Z,73.45
2023-02-27T01:34:41.470Z,72.72
2023-02-27T01:35:41.454Z,72.92
2023-02-27T01:36:41.420Z,72.61
2023-02-27T01:37:41.411Z,73.55
2023-02-27T01:38:41.406Z,73.34
2023-02-27T01:39:41.398Z,73.34
2023-02-27T01:40:41.399Z,72.68
2023-02-27T01:41:41.369Z,72.58
2023-02-27T01:42:41.360Z,72.89
2023-02-27T01:43:41.364Z,73.41
2023-02-27T01:44:41.338Z,73.21
2023-02-27T01:45:41.382Z,72.89
2023-02-27T01:46:41.320Z,72.37
2023-02-27T01:47:41.341Z,72.06
2023-02-27T01:48:41.310Z,72.06
2023-02-27T01:49:41.291Z,72.27
2023-02-27T01:50:41.288Z,72.37
2023-02-27T01:51:41.268Z,72.68
2023-02-27T01:52:41.252Z,72.47
2023-02-27T01:53:41.239Z,72.58
2023-02-27T01:54:41.241Z,72.47
2023-02-27T01:55:41.258Z,72.58
2023-02-27T01:56:41.204Z,73.31
2023-02-27T01:57:41.200Z,73.10
2023-02-27T01:58:41.188Z,73.21
2023-02-27T01:59:41.178Z,72.58
2023-02-27T02:00:41.179Z,72.78
2023-02-27T02:01:41.175Z,73.52
2023-02-27T02:02:41.143Z,72.78
2023-02-27T02:03:41.164Z,72.68
2023-02-27T02:04:41.123Z,73.31
2023-02-27T02:05:41.124Z,73.31
2023-02-27T02:06:41.099Z,73.31
2023-02-27T02:07:41.095Z,72.37
2023-02-27T02:08:41.084Z,72.47
2023-02-27T02:09:41.081Z,71.95
2023-02-27T02:10:41.079Z,72.16
2023-02-27T02:11:41.051Z,72.27
2023-02-27T02:12:41.036Z,72.27
2023-02-27T02:13:41.036Z,72.16
2023-02-27T02:14:41.015Z,72.47
2023-02-27T02:15:41.022Z,72.47
2023-02-27T02:16:41.030Z,72.58
2023-02-27T02:17:41.014Z,72.58
2023-02-27T02:18:40.982Z,72.58
2023-02-27T02:19:40.967Z,72.06
2023-02-27T02:20:40.977Z,72.58
2023-02-27T02:21:40.941Z,72.16
2023-02-27T02:22:40.929Z,72.72
2023-02-27T02:23:40.923Z,72.19
2023-02-27T02:24:40.912Z,72.41
2023-02-27T02:25:40.918Z,73.17
2023-02-27T02:26:40.897Z,73.34
2023-02-27T02:27:40.878Z,73.13
2023-02-27T02:28:40.869Z,72.92
2023-02-27T02:29:40.859Z,73.03
2023-02-27T02:30:40.945Z,72.75
2023-02-27T02:31:40.975Z,72.96
2023-02-27T02:32:40.824Z,72.75
2023-02-27T02:33:40.833Z,73.27
2023-02-27T02:34:40.803Z,73.17
2023-02-27T02:35:40.815Z,73.58
2023-02-27T02:36:40.779Z,73.27
2023-02-27T02:37:40.782Z,73.48
2023-02-27T02:38:40.762Z,73.07
2023-02-27T02:39:40.758Z,73.27
2023-02-27T02:40:40.782Z,73.07
2023-02-27T02:41:40.731Z,73.69
2023-02-27T02:42:40.718Z,73.38
2023-02-27T02:43:40.708Z,73.69
2023-02-27T02:44:40.719Z,74.01
2023-02-27T02:45:40.709Z,73.69
2023-02-27T02:46:40.679Z,73.69
2023-02-27T02:47:40.668Z,73.69
2023-02-27T02:48:40.654Z,73.69
2023-02-27T02:49:40.737Z,73.69
2023-02-27T02:50:40.651Z,73.79
2023-02-27T02:51:40.648Z,73.69
2023-02-27T02:52:40.623Z,73.58
2023-02-27T02:53:40.612Z,73.38
2023-02-27T02:54:40.596Z,73.79
2023-02-27T02:55:40.615Z,74.11
2023-02-27T02:56:40.569Z,73.69
2023-02-27T02:57:40.559Z,73.79
2023-02-27T02:58:40.552Z,74.11
2023-02-27T02:59:40.542Z,74.04
2023-02-27T03:00:40.546Z,74.45
2023-02-27T03:01:40.606Z,74.56
2023-02-27T03:02:40.506Z,74.35
2023-02-27T03:03:40.499Z,73.93
2023-02-27T03:04:40.563Z,73.93
2023-02-27T03:05:40.514Z,74.77
2023-02-27T03:06:40.464Z,74.98
2023-02-27T03:07:40.487Z,74.94
2023-02-27T03:08:40.458Z,74.98
2023-02-27T03:09:40.433Z,74.73
2023-02-27T03:10:40.440Z,74.63
2023-02-27T03:11:40.412Z,74.73
2023-02-27T03:12:40.401Z,74.42
2023-02-27T03:13:40.404Z,74.01
2023-02-27T03:14:40.384Z,74.21
2023-02-27T03:15:40.413Z,73.90
2023-02-27T03:16:40.357Z,74.21
2023-02-27T03:17:40.349Z,74.01
2023-02-27T03:18:40.334Z,74.32
2023-02-27T03:19:40.322Z,74.32
2023-02-27T03:20:40.346Z,73.79
2023-02-27T03:21:40.378Z,74.11
2023-02-27T03:22:40.294Z,74.21
2023-02-27T03:23:40.284Z,73.66
2023-02-27T03:24:40.269Z,73.66
2023-02-27T03:25:40.287Z,73.86
2023-02-27T03:26:40.240Z,74.11
2023-02-27T03:27:40.247Z,73.58
2023-02-27T03:28:40.225Z,74.11
2023-02-27T03:29:40.206Z,74.32
2023-02-27T03:30:40.300Z,74.32
2023-02-27T03:31:40.297Z,74.52
2023-02-27T03:32:40.179Z,74.32
2023-02-27T03:33:40.168Z,74.32
2023-02-27T03:34:40.222Z,74.11
2023-02-27T03:35:40.158Z,74.32
2023-02-27T03:36:40.139Z,74.21
2023-02-27T03:37:40.141Z,74.42
2023-02-27T03:38:40.130Z,73.62
2023-02-27T03:39:40.118Z,73.72
2023-02-27T03:40:40.110Z,74.04
2023-02-27T03:41:40.088Z,74.35
2023-02-27T03:42:40.080Z,74.24
2023-02-27T03:43:40.062Z,74.80
2023-02-27T03:44:40.048Z,75.22
2023-02-27T03:45:40.052Z,75.22
2023-02-27T03:46:40.061Z,75.74
2023-02-27T03:47:40.023Z,75.74
2023-02-27T03:48:40.003Z,75.95
2023-02-27T03:49:40.019Z,76.16
2023-02-27T03:50:39.980Z,76.06
2023-02-27T03:51:39.990Z,76.06
2023-02-27T03:52:39.967Z,76.06
2023-02-27T03:53:39.976Z,75.81
2023-02-27T03:54:39.966Z,75.92
2023-02-27T03:55:39.937Z,75.92
2023-02-27T03:56:39.942Z,75.92
2023-02-27T03:57:39.911Z,75.71
2023-02-27T03:58:39.907Z,75.81
2023-02-27T03:59:39.886Z,75.81
2023-02-27T04:00:39.878Z,75.29
2023-02-27T04:01:39.889Z,75.29
2023-02-27T04:02:39.879Z,75.39
2023-02-27T04:03:39.851Z,75.15
2023-02-27T04:04:39.844Z,75.18
2023-02-27T04:05:39.827Z,75.26
2023-02-27T04:06:39.841Z,75.18
2023-02-27T04:07:39.823Z,74.94
2023-02-27T04:08:39.793Z,74.94
2023-02-27T04:09:39.797Z,75.08
2023-02-27T04:10:39.769Z,75.05
2023-02-27T04:11:39.776Z,75.26
2023-02-27T04:12:39.756Z,74.94
2023-02-27T04:13:39.749Z,75.05
2023-02-27T04:14:39.736Z,75.05
2023-02-27T04:15:39.723Z,75.18
2023-02-27T04:16:39.715Z,75.08
2023-02-27T04:17:39.706Z,75.18
2023-02-27T04:18:39.687Z,75.29
2023-02-27T04:19:39.733Z,75.29
2023-02-27T04:20:39.668Z,75.05
2023-02-27T04:21:39.668Z,75.05
2023-02-27T04:22:39.650Z,75.26
2023-02-27T04:23:39.632Z,75.08
2023-02-27T04:24:39.633Z,75.36
2023-02-27T04:25:39.628Z,75.18
2023-02-27T04:26:43.319Z,75.15
2023-02-27T04:27:39.602Z,75.05
2023-02-27T04:28:39.581Z,75.15
2023-02-27T04:29:39.697Z,75.05
2023-02-27T04:30:39.563Z,75.05
2023-02-27T04:31:39.652Z,75.15
2023-02-27T04:32:39.719Z,75.05
2023-02-27T04:33:39.542Z,74.87
2023-02-27T04:34:39.684Z,74.87
2023-02-27T04:35:39.512Z,74.98
2023-02-27T04:36:39.501Z,75.39
2023-02-27T04:37:39.492Z,75.39
2023-02-27T04:38:39.500Z,75.29
2023-02-27T04:39:39.755Z,75.29
2023-02-27T04:40:39.459Z,75.36
2023-02-27T04:41:39.468Z,75.18
2023-02-27T04:42:39.443Z,75.26
2023-02-27T04:43:39.431Z,75.60
2023-02-27T04:44:39.429Z,75.46
2023-02-27T04:45:39.415Z,75.36
2023-02-27T04:46:39.400Z,75.71
2023-02-27T04:47:39.387Z,75.67
2023-02-27T04:48:39.381Z,75.57
2023-02-27T04:49:39.400Z,75.78
2023-02-27T04:50:39.356Z,75.67
2023-02-27T04:51:39.364Z,75.81
2023-02-27T04:52:39.335Z,75.78
2023-02-27T04:53:39.318Z,75.71
2023-02-27T04:54:39.310Z,75.57
2023-02-27T04:55:39.302Z,75.78
2023-02-27T04:56:39.313Z,75.81
2023-02-27T04:57:39.314Z,75.71
2023-02-27T04:58:39.353Z,75.98
2023-02-27T04:59:39.258Z,75.92
2023-02-27T05:00:39.248Z,76.09
2023-02-27T05:01:39.273Z,76.23
2023-02-27T05:02:39.360Z,76.23
2023-02-27T05:03:39.214Z,76.12
2023-02-27T05:04:39.205Z,75.78
2023-02-27T05:05:39.198Z,76.02
2023-02-27T05:06:39.216Z,75.98
2023-02-27T05:07:39.172Z,75.71
2023-02-27T05:08:39.168Z,75.67
2023-02-27T05:09:39.161Z,75.71
2023-02-27T05:10:39.144Z,75.81
2023-02-27T05:11:39.183Z,76.02
2023-02-27T05:12:39.115Z,76.12
2023-02-27T05:13:39.127Z,76.12
2023-02-27T05:14:39.116Z,76.02
2023-02-27T05:15:39.154Z,76.12
2023-02-27T05:16:39.202Z,76.33
2023-02-27T05:17:39.120Z,76.65
2023-02-27T05:18:39.053Z,76.51
2023-02-27T05:19:39.063Z,76.33
2023-02-27T05:20:39.043Z,76.44
2023-02-27T05:21:39.041Z,76.44
2023-02-27T05:22:39.010Z,76.44
2023-02-27T05:23:38.995Z,76.44
2023-02-27T05:24:38.997Z,76.44
2023-02-27T05:25:38.974Z,76.44
2023-02-27T05:26:38.994Z,76.44
2023-02-27T05:27:38.951Z,76.33
2023-02-27T05:28:38.954Z,76.33
2023-02-27T05:29:38.985Z,76.44
2023-02-27T05:30:38.932Z,76.65
2023-02-27T05:31:38.964Z,76.54
2023-02-27T05:32:39.044Z,76.86
2023-02-27T05:33:38.891Z,76.86
2023-02-27T05:34:38.882Z,77.00
2023-02-27T05:35:38.911Z,77.41
2023-02-27T05:36:38.893Z,77.48
2023-02-27T05:37:38.851Z,77.41
2023-02-27T05:38:38.838Z,77.62
2023-02-27T05:39:38.855Z,77.48
2023-02-27T05:40:38.816Z,77.62
2023-02-27T05:41:38.820Z,77.80
2023-02-27T05:42:38.797Z,77.48
2023-02-27T05:43:38.782Z,77.69
2023-02-27T05:44:38.790Z,77.59
2023-02-27T05:45:38.832Z,77.59
2023-02-27T05:46:38.764Z,77.48
2023-02-27T05:47:38.758Z,77.27
2023-02-27T05:48:38.731Z,77.17
2023-02-27T05:49:38.724Z,77.38
2023-02-27T05:50:38.706Z,77.38
2023-02-27T05:51:38.718Z,77.69
2023-02-27T05:52:38.690Z,77.69
2023-02-27T05:53:38.698Z,77.27
2023-02-27T05:54:38.676Z,77.69
2023-02-27T05:55:38.654Z,77.48
2023-02-27T05:56:38.661Z,77.48
2023-02-27T05:57:38.634Z,77.62
2023-02-27T05:58:38.623Z,77.73
2023-02-27T05:59:38.628Z,77.83
2023-02-27T06:00:38.620Z,78.04
2023-02-27T06:01:38.627Z,78.56
2023-02-27T06:02:38.592Z,78.35
2023-02-27T06:03:38.620Z,78.67
2023-02-27T06:04:38.563Z,78.32
2023-02-27T06:05:38.550Z,78.32
2023-02-27T06:06:38.555Z,78.32
2023-02-27T06:07:38.541Z,77.90
2023-02-27T06:08:38.525Z,78.11
2023-02-27T06:09:38.516Z,78.04
2023-02-27T06:10:38.546Z,78.42
2023-02-27T06:11:38.568Z,78.32
2023-02-27T06:12:38.488Z,78.32
2023-02-27T06:13:40.857Z,78.32
2023-02-27T06:14:38.483Z,78.11
2023-02-27T06:15:38.447Z,77.59
2023-02-27T06:16:38.620Z,77.90
2023-02-27T06:17:38.456Z,77.48
2023-02-27T06:18:38.420Z,77.48
2023-02-27T06:19:38.421Z,77.48
2023-02-27T06:20:38.398Z,77.48
2023-02-27T06:21:38.459Z,77.59
2023-02-27T06:22:38.380Z,77.59
2023-02-27T06:23:38.362Z,77.90
2023-02-27T06:24:38.377Z,78.53
2023-02-27T06:25:38.348Z,78.74
2023-02-27T06:26:38.338Z,78.74
2023-02-27T06:27:38.322Z,78.42
2023-02-27T06:28:38.307Z,78.56
2023-02-27T06:29:38.297Z,78.84
2023-02-27T06:30:38.354Z,78.67
2023-02-27T06:31:38.305Z,78.35
2023-02-27T06:32:38.284Z,78.56
2023-02-27T06:33:38.277Z,78.88
2023-02-27T06:34:38.253Z,78.88
2023-02-27T06:35:38.301Z,78.98
2023-02-27T06:36:38.239Z,78.56
2023-02-27T06:37:38.218Z,78.35
2023-02-27T06:38:38.200Z,79.19
2023-02-27T06:39:38.190Z,78.88
2023-02-27T06:40:38.199Z,78.98
2023-02-27T06:41:38.178Z,79.40
2023-02-27T06:42:38.155Z,79.68
2023-02-27T06:43:38.230Z,79.99
2023-02-27T06:44:38.132Z,79.99
2023-02-27T06:45:38.120Z,80.09
2023-02-27T06:46:38.252Z,79.78
2023-02-27T06:47:38.098Z,79.05
2023-02-27T06:48:38.099Z,78.70
2023-02-27T06:49:38.105Z,78.80
2023-02-27T06:50:38.071Z,78.49
2023-02-27T06:51:38.081Z,78.80
2023-02-27T06:52:38.049Z,78.49
2023-02-27T06:53:38.032Z,78.39
2023-02-27T06:54:38.026Z,78.28
2023-02-27T06:55:38.012Z,78.25
2023-02-27T06:56:38.022Z,78.14
2023-02-27T06:57:38.039Z,78.35
2023-02-27T06:58:37.986Z,78.14
2023-02-27T06:59:37.971Z,78.35
2023-02-27T07:00:37.961Z,78.21
2023-02-27T07:01:38.073Z,78.11
2023-02-27T07:02:37.957Z,78.21
2023-02-27T07:03:37.960Z,78.42
2023-02-27T07:04:38.005Z,77.58
2023-02-27T07:05:37.946Z,77.80
2023-02-27T07:07:33.940Z,77.48
2023-02-27T07:07:39.198Z,77.55
2023-02-27T07:08:37.896Z,77.23
2023-02-27T07:09:38.874Z,77.03
2023-02-27T07:10:37.857Z,76.82
2023-02-27T07:11:37.846Z,76.96
2023-02-27T07:12:37.857Z,76.82
2023-02-27T07:13:37.824Z,76.82
2023-02-27T07:14:37.819Z,76.82
2023-02-27T07:15:37.828Z,77.13
2023-02-27T07:16:37.797Z,77.23
2023-02-27T07:17:37.793Z,77.45
2023-02-27T07:18:37.774Z,77.45
2023-02-27T07:19:37.763Z,77.03
2023-02-27T07:20:37.749Z,77.23
2023-02-27T07:21:37.771Z,77.23
2023-02-27T07:22:37.766Z,77.34
2023-02-27T07:23:37.721Z,77.23
2023-02-27T07:24:37.710Z,77.55
2023-02-27T07:25:37.702Z,77.34
2023-02-27T07:26:37.700Z,77.45
2023-02-27T07:27:37.705Z,77.76
2023-02-27T07:28:37.753Z,78.49
2023-02-27T07:29:37.658Z,78.28
2023-02-27T07:30:37.647Z,77.93
2023-02-27T07:31:37.765Z,78.17
2023-02-27T07:32:37.652Z,78.28
2023-02-27T07:33:37.612Z,78.28
2023-02-27T07:34:37.605Z,78.14
2023-02-27T07:35:37.624Z,77.93
2023-02-27T07:36:37.601Z,77.72
2023-02-27T07:37:37.664Z,78.14
2023-02-27T07:38:37.563Z,78.14
2023-02-27T07:39:37.551Z,78.03
2023-02-27T07:40:37.537Z,78.03
2023-02-27T07:41:37.528Z,78.14
2023-02-27T07:42:37.536Z,78.14
2023-02-27T07:43:37.505Z,78.34
2023-02-27T07:44:37.526Z,77.89
2023-02-27T07:45:37.490Z,78.03
2023-02-27T07:46:37.512Z,78.24
2023-02-27T07:47:37.506Z,78.56
2023-02-27T07:48:37.455Z,78.63
2023-02-27T07:49:37.445Z,78.73
2023-02-27T07:50:37.433Z,78.73
2023-02-27T07:51:37.420Z,78.42
2023-02-27T07:52:37.437Z,78.52
2023-02-27T07:53:37.474Z,78.31
2023-02-27T07:54:37.411Z,78.07
2023-02-27T07:55:37.423Z,78.17
2023-02-27T07:56:37.371Z,78.28
2023-02-27T07:57:37.377Z,77.75
2023-02-27T07:58:37.350Z,77.55
2023-02-27T07:59:37.337Z,77.75
2023-02-27T08:00:37.330Z,77.55
2023-02-27T08:01:37.320Z,77.55
2023-02-27T08:02:37.335Z,77.61
2023-02-27T08:03:37.292Z,77.51
2023-02-27T08:04:37.320Z,77.51
2023-02-27T08:05:37.274Z,77.30
2023-02-27T08:06:37.313Z,77.30
2023-02-27T08:07:37.275Z,77.20
2023-02-27T08:08:37.246Z,77.16
2023-02-27T08:09:37.272Z,77.20
2023-02-27T08:10:37.221Z,76.75
2023-02-27T08:11:37.206Z,76.85
2023-02-27T08:12:37.210Z,76.64
2023-02-27T08:14:03.326Z,76.54
2023-02-27T08:14:38.176Z,76.29
2023-02-27T08:15:37.168Z,76.12
2023-02-27T08:16:37.272Z,76.19
2023-02-27T08:17:37.160Z,75.88
2023-02-27T08:18:37.138Z,75.88
2023-02-27T08:19:37.124Z,75.88
2023-02-27T08:20:37.119Z,75.67
2023-02-27T08:21:37.100Z,75.32
2023-02-27T08:22:37.109Z,75.43
2023-02-27T08:23:37.088Z,75.12
2023-02-27T08:24:37.082Z,75.01
2023-02-27T08:25:37.079Z,74.70
2023-02-27T08:26:37.048Z,74.39
2023-02-27T08:27:37.052Z,74.05
2023-02-27T08:28:37.069Z,74.36
2023-02-27T08:29:37.017Z,73.94
2023-02-27T08:30:37.005Z,74.15
2023-02-27T08:31:37.062Z,74.46
2023-02-27T08:32:37.067Z,74.15
2023-02-27T08:33:36.970Z,73.63
2023-02-27T08:34:37.016Z,74.05
2023-02-27T08:35:36.971Z,73.91
2023-02-27T08:36:36.942Z,73.28
2023-02-27T08:37:36.939Z,73.91
2023-02-27T08:38:36.931Z,73.60
2023-02-27T08:39:36.903Z,73.60
2023-02-27T08:40:36.889Z,73.28
2023-02-27T08:41:36.909Z,73.67
2023-02-27T08:42:36.882Z,72.84
2023-02-27T08:43:36.865Z,73.11
2023-02-27T08:44:36.846Z,73.11
2023-02-27T08:45:36.884Z,72.91
2023-02-27T08:46:36.825Z,71.94
2023-02-27T08:47:36.827Z,71.73
2023-02-27T08:48:36.802Z,71.84
2023-02-27T08:49:36.802Z,71.53
2023-02-27T08:50:36.779Z,71.59
2023-02-27T08:51:36.773Z,70.42
2023-02-27T08:52:36.795Z,70.94
2023-02-27T08:53:36.752Z,70.60
2023-02-27T08:54:36.738Z,70.50
2023-02-27T08:55:36.732Z,69.43
2023-02-27T08:56:36.722Z,69.19
2023-02-27T08:57:36.745Z,68.77
2023-02-27T08:58:36.692Z,68.02
2023-02-27T08:59:36.691Z,66.85
2023-02-27T09:00:36.693Z,66.93
2023-02-27T09:01:36.665Z,66.10
2023-02-27T09:02:36.729Z,65.62
2023-02-27T09:03:36.648Z,65.52
2023-02-27T09:04:36.634Z,65.21
2023-02-27T09:05:36.621Z,64.49
2023-02-27T09:06:36.618Z,63.56
2023-02-27T09:07:36.608Z,63.25
2023-02-27T09:08:36.587Z,63.35
2023-02-27T09:09:36.578Z,63.69
2023-02-27T09:10:36.602Z,63.69
2023-02-27T09:11:38.687Z,63.90
2023-02-27T09:12:36.572Z,63.82
2023-02-27T09:13:36.554Z,64.45
2023-02-27T09:14:36.519Z,64.45
2023-02-27T09:15:36.509Z,64.03
2023-02-27T09:16:36.574Z,63.82
2023-02-27T09:17:36.499Z,63.62
2023-02-27T09:18:36.483Z,64.45
2023-02-27T09:19:36.466Z,64.55
2023-02-27T09:20:36.474Z,65.27
2023-02-27T09:21:36.446Z,64.96
2023-02-27T09:22:36.458Z,64.45
2023-02-27T09:23:36.426Z,64.55
2023-02-27T09:24:36.412Z,64.45
2023-02-27T09:25:36.401Z,64.03
2023-02-27T09:26:45.214Z,63.49
2023-02-27T09:27:37.406Z,63.59
2023-02-27T09:28:36.368Z,63.49
2023-02-27T09:29:36.379Z,62.66
2023-02-27T09:30:36.345Z,62.43
2023-02-27T09:31:36.455Z,62.84
2023-02-27T09:32:36.367Z,62.22
2023-02-27T09:33:36.314Z,62.25
2023-02-27T09:34:36.307Z,62.66
2023-02-27T09:35:36.326Z,62.66
2023-02-27T09:36:36.282Z,61.73
2023-02-27T09:37:36.284Z,62.15
2023-02-27T09:38:36.270Z,62.07
2023-02-27T09:39:36.264Z,62.69
2023-02-27T09:40:36.243Z,62.90
2023-02-27T09:41:36.228Z,62.90
2023-02-27T09:42:36.230Z,61.79
2023-02-27T09:43:36.210Z,62.10
2023-02-27T09:44:45.833Z,62.95
2023-02-27T09:45:37.264Z,62.30
2023-02-27T09:46:36.168Z,63.06
2023-02-27T09:47:36.180Z,63.57
2023-02-27T09:48:36.185Z,63.47
2023-02-27T09:49:36.142Z,63.78
2023-02-27T09:50:36.125Z,63.16
2023-02-27T09:51:36.135Z,63.47
2023-02-27T09:52:36.109Z,64.30
2023-02-27T09:53:36.114Z,64.30
2023-02-27T09:54:36.100Z,63.99
2023-02-27T09:55:36.089Z,63.89
2023-02-27T09:56:36.067Z,63.57
2023-02-27T09:57:36.092Z,62.88
2023-02-27T09:58:36.045Z,63.95
2023-02-27T09:59:36.033Z,63.74
2023-02-27T10:00:36.031Z,64.67
2023-02-27T10:01:36.041Z,65.39
2023-02-27T10:02:36.064Z,65.19
2023-02-27T10:03:36.065Z,64.77
2023-02-27T10:04:35.984Z,64.02
2023-02-27T10:05:35.972Z,64.23
2023-02-27T10:06:35.952Z,64.23
2023-02-27T10:07:35.958Z,64.95
2023-02-27T10:08:35.933Z,65.05
2023-02-27T10:09:35.936Z,65.16
2023-02-27T10:10:35.914Z,63.81
2023-02-27T10:11:35.900Z,64.43
2023-02-27T10:12:35.930Z,63.50
2023-02-27T10:13:35.899Z,61.95
2023-02-27T10:14:35.871Z,61.54
2023-02-27T10:15:35.858Z,62.16
2023-02-27T10:16:35.932Z,61.85
2023-02-27T10:17:35.878Z,61.85
2023-02-27T10:18:35.837Z,61.82
2023-02-27T10:19:35.836Z,62.13
2023-02-27T10:20:35.831Z,60.19
2023-02-27T10:21:35.807Z,59.64
2023-02-27T10:22:35.798Z,59.44
2023-02-27T10:23:35.783Z,59.13
2023-02-27T10:24:35.766Z,59.23
2023-02-27T10:25:35.765Z,59.13
2023-02-27T10:26:35.744Z,59.00
2023-02-27T10:27:42.797Z,57.89
2023-02-27T10:28:35.725Z,57.89
2023-02-27T10:29:35.721Z,58.95
2023-02-27T10:30:35.798Z,59.88
2023-02-27T10:31:35.750Z,59.70
2023-02-27T10:32:35.763Z,60.11
2023-02-27T10:33:35.727Z,59.50
2023-02-27T10:34:35.673Z,59.73
2023-02-27T10:35:35.707Z,59.91
2023-02-27T10:36:35.696Z,59.88
2023-02-27T10:37:35.624Z,59.29
2023-02-27T10:38:35.640Z,57.84
2023-02-27T10:39:35.614Z,59.29
2023-02-27T10:40:35.613Z,57.92
2023-02-27T10:41:35.584Z,58.04
2023-02-27T10:42:35.574Z,57.73
2023-02-27T10:43:35.589Z,58.04
2023-02-27T10:44:35.590Z,57.01
2023-02-27T10:45:37.027Z,57.53
2023-02-27T10:46:35.576Z,55.49
2023-02-27T10:47:35.520Z,56.00
2023-02-27T10:48:35.517Z,56.34
2023-02-27T10:49:35.529Z,57.48
2023-02-27T10:50:35.482Z,57.89
2023-02-27T10:51:35.472Z,57.97
2023-02-27T10:52:35.458Z,58.38
2023-02-27T10:53:35.468Z,57.56
2023-02-27T10:54:35.440Z,57.42
2023-02-27T10:55:35.427Z,57.22
2023-02-27T10:56:35.422Z,56.98
2023-02-27T10:57:35.404Z,56.77
2023-02-27T10:58:35.425Z,56.37
2023-02-27T10:59:35.389Z,55.74
2023-02-27T11:00:35.390Z,55.77
2023-02-27T11:01:35.427Z,56.47
2023-02-27T11:02:35.347Z,56.91
2023-02-27T11:03:35.355Z,55.66
2023-02-27T11:04:35.397Z,55.87
2023-02-27T11:05:35.341Z,55.77
2023-02-27T11:06:35.313Z,56.08
2023-02-27T11:07:35.304Z,55.87
2023-02-27T11:08:35.311Z,55.12
2023-02-27T11:09:35.280Z,55.51
2023-02-27T11:10:35.274Z,56.24
2023-02-27T11:11:35.254Z,55.30
2023-02-27T11:12:35.316Z,54.76
2023-02-27T11:13:35.257Z,54.86
2023-02-27T11:14:35.257Z,55.59
2023-02-27T11:15:35.309Z,55.46
2023-02-27T11:16:35.203Z,54.32
2023-02-27T11:17:35.204Z,52.98
2023-02-27T11:18:35.176Z,53.70
2023-02-27T11:19:35.206Z,53.39
2023-02-27T11:20:35.156Z,53.50
2023-02-27T11:21:35.162Z,53.50
2023-02-27T11:22:35.135Z,53.39
2023-02-27T11:23:35.142Z,53.08
2023-02-27T11:24:35.118Z,53.29
2023-02-27T11:25:35.101Z,53.29
2023-02-27T11:26:35.117Z,53.70
2023-02-27T11:27:35.085Z,53.19
2023-02-27T11:28:35.085Z,53.11
2023-02-27T11:29:35.065Z,53.21
2023-02-27T11:30:35.049Z,53.31
2023-02-27T11:31:35.114Z,52.91
2023-02-27T11:32:35.031Z,52.08
2023-02-27T11:33:35.072Z,53.67
2023-02-27T11:34:35.014Z,53.78
2023-02-27T11:35:35.040Z,52.95
2023-02-27T11:36:34.984Z,52.67
2023-02-27T11:37:35.006Z,53.28
2023-02-27T11:38:34.991Z,53.28
2023-02-27T11:39:34.969Z,53.59
2023-02-27T11:40:34.949Z,54.22
2023-02-27T11:41:34.931Z,55.05
2023-02-27T11:42:34.948Z,55.35
2023-02-27T11:43:34.931Z,56.18
2023-02-27T11:44:50.239Z,55.05
2023-02-27T11:46:11.378Z,54.74
2023-02-27T11:46:47.179Z,53.91
2023-02-27T11:47:36.858Z,53.26
2023-02-27T11:48:34.920Z,52.67
2023-02-27T11:49:34.869Z,53.08
2023-02-27T11:50:34.848Z,52.04
2023-02-27T11:51:34.828Z,52.23
2023-02-27T11:52:34.809Z,51.29
2023-02-27T11:53:34.845Z,52.33
2023-02-27T11:54:34.789Z,51.73
2023-02-27T11:55:34.780Z,51.94
2023-02-27T11:56:36.226Z,52.67
2023-02-27T11:57:34.760Z,53.08
2023-02-27T11:58:34.761Z,53.05
2023-02-27T11:59:34.740Z,52.64
2023-02-27T12:00:34.726Z,51.61
2023-02-27T12:01:34.715Z,51.53
2023-02-27T12:02:34.761Z,52.12
2023-02-27T12:03:34.749Z,50.70
2023-02-27T12:04:34.689Z,51.42
2023-02-27T12:05:34.674Z,51.32
2023-02-27T12:06:34.658Z,51.32
2023-02-27T12:07:34.668Z,52.33
2023-02-27T12:08:34.664Z,51.94
2023-02-27T12:09:34.658Z,51.81
2023-02-27T12:10:34.616Z,51.28
2023-02-27T12:11:34.607Z,51.89
2023-02-27T12:12:34.637Z,51.58
2023-02-27T12:13:34.620Z,49.64
2023-02-27T12:14:34.625Z,50.76
2023-02-27T12:15:34.566Z,52.12
2023-02-27T12:16:35.053Z,53.26
2023-02-27T12:17:34.538Z,52.41
2023-02-27T12:18:34.598Z,51.29
2023-02-27T12:19:34.527Z,51.28
2023-02-27T12:20:34.521Z,51.28
2023-02-27T12:21:34.495Z,52.31
2023-02-27T12:22:34.484Z,53.34
2023-02-27T12:23:34.495Z,53.34
2023-02-27T12:24:34.465Z,53.34
2023-02-27T12:25:34.510Z,53.65
2023-02-27T12:26:34.443Z,53.44
2023-02-27T12:27:34.427Z,52.93
2023-02-27T12:28:34.447Z,52.54
2023-02-27T12:29:34.421Z,53.34
2023-02-27T12:30:34.453Z,53.55
2023-02-27T12:31:34.477Z,53.44
2023-02-27T12:32:34.421Z,53.55
2023-02-27T12:33:34.388Z,53.55
2023-02-27T12:34:34.354Z,53.13
2023-02-27T12:35:34.395Z,51.66
2023-02-27T12:36:34.327Z,51.28
2023-02-27T12:37:34.317Z,51.25
2023-02-27T12:38:35.280Z,50.45
2023-02-27T12:39:34.330Z,50.63
2023-02-27T12:40:34.288Z,49.39
2023-02-27T12:41:34.306Z,49.08
2023-02-27T12:42:34.260Z,49.60
2023-02-27T12:43:34.276Z,50.13
2023-02-27T12:44:34.240Z,49.21
2023-02-27T12:45:34.242Z,49.41
2023-02-27T12:46:34.221Z,50.13
2023-02-27T12:47:34.212Z,50.45
2023-02-27T12:48:34.221Z,51.37
2023-02-27T12:49:34.186Z,51.68
2023-02-27T12:50:34.188Z,51.68
2023-02-27T12:51:34.166Z,52.10
2023-02-27T12:52:34.153Z,52.00